Terminal Aerodrome Forecast
Issued by NWS Dallas/Fort Worth, TX

Home | Current Version | Previous Version | Text Only | Print | Product List | Glossary On
Versions: 1 2 3 4 5 6 7 8 9 10 11 12 13 14 15 16 17 18 19 20 21 22 23 24 25 26 27 28 29 30 31
090
FTUS44 KFWD 281840 AAA
TAFACT
TAF AMD
KACT 281840Z 2819/2918 20010KT P6SM SCT018 BKN035
     FM290300 14007KT P6SM OVC012
     FM290600 16007KT P6SM VCSH OVC008
     FM291200 15007KT P6SM OVC011
     FM291600 16007KT P6SM SCT011 BKN040=

USA.gov is the U.S. government's official web portal to all federal, state and local government web resources and services.